Time;durP1;ratioP1;P1;durP2;ratioP2;P2;SDS_P1;SDS_P2;PMS_P1;PMS_P2;Temp;Humidity;BMP_temperature;BMP_pressure;BME280_temperature;BME280_humidity;BME280_pressure;Samples;Min_cycle;Max_cycle;Signal;HPM_P1;HPM_P2
2023/10/19 00:01:19;;;;;;;;;64.33;49.00;;;;;4.49;97.92;99114.09;6314724;20;2870122;-41
2023/10/19 00:03:49;;;;;;;;;60.00;47.50;;;;;4.56;98.45;99104.06;6311713;20;2869013;-41
2023/10/19 00:06:18;;;;;;;;;61.50;49.00;;;;;4.88;98.06;99115.81;6280997;20;2852341;-42
2023/10/19 00:08:47;;;;;;;;;61.00;50.00;;;;;4.96;97.66;99118.97;6280116;20;2869161;-42
2023/10/19 00:11:24;;;;;;;;;61.00;48.00;;;;;5.10;96.91;99122.78;6283197;20;2873296;-42
2023/10/19 00:13:54;;;;;;;;;61.50;50.50;;;;;5.11;96.84;99122.72;6313902;20;2859698;-43
2023/10/19 00:16:30;;;;;;;;;65.00;47.67;;;;;4.84;97.86;99114.22;6280634;20;2873313;-41
2023/10/19 00:19:00;;;;;;;;;63.00;49.33;;;;;5.01;97.45;99113.44;6313324;20;2876548;-42
2023/10/19 00:21:30;;;;;;;;;57.00;48.00;;;;;5.31;96.69;99108.41;6314289;20;2864015;-43
2023/10/19 00:24:04;;;;;;;;;56.50;47.00;;;;;5.16;96.28;99114.47;6282768;20;2852391;-41
2023/10/19 00:26:33;;;;;;;;;60.50;49.50;;;;;5.28;96.49;99108.56;6282083;20;2878462;-41
2023/10/19 00:29:18;;;;;;;;;60.00;50.00;;;;;5.33;96.65;99108.34;6282871;20;2873344;-42
2023/10/19 00:31:48;;;;;;;;;59.50;47.50;;;;;5.12;96.70;99107.59;6282672;20;2862776;-41
2023/10/19 00:34:17;;;;;;;;;59.50;47.00;;;;;5.12;97.26;99096.97;6282151;20;2853527;-42
2023/10/19 00:36:48;;;;;;;;;55.50;44.00;;;;;5.21;97.34;99088.50;6280996;20;2860734;-42
2023/10/19 00:39:27;;;;;;;;;63.00;50.33;;;;;5.23;98.81;99083.97;6288289;20;3614967;-44
2023/10/19 00:41:57;;;;;;;;;61.33;48.00;;;;;5.35;97.30;99078.06;6283822;20;2861740;-42
2023/10/19 00:44:38;;;;;;;;;57.00;45.00;;;;;5.45;96.30;99071.34;6313364;20;3610700;-43
2023/10/19 00:47:18;;;;;;;;;60.00;46.67;;;;;5.32;96.84;99067.56;6311525;20;2864956;-41
2023/10/19 00:49:49;;;;;;;;;56.00;44.33;;;;;5.53;97.12;99064.75;6311464;20;2861763;-41
2023/10/19 00:52:24;;;;;;;;;56.00;44.50;;;;;5.71;95.88;99064.69;6310038;20;2852351;-42
2023/10/19 00:54:58;;;;;;;;;53.50;44.00;;;;;5.75;95.37;99053.88;6281309;20;2850348;-41
2023/10/19 00:57:33;;;;;;;;;54.00;45.00;;;;;5.68;95.40;99050.63;6279891;20;2858819;-42
2023/10/19 01:00:11;;;;;;;;;59.00;44.33;;;;;5.65;95.93;99045.47;6282038;20;2861773;-41
2023/10/19 01:02:46;;;;;;;;;53.00;42.00;;;;;5.83;95.50;99041.84;6312996;20;2855505;-41
2023/10/19 01:05:21;;;;;;;;;57.00;45.00;;;;;5.83;95.16;99036.53;6281082;20;2858701;-44
2023/10/19 01:07:57;;;;;;;;;56.67;44.00;;;;;5.78;94.82;99037.72;6278450;20;2877432;-42
2023/10/19 01:10:28;;;;;;;;;55.00;46.50;;;;;5.83;94.93;99031.19;6310441;20;2856535;-41
2023/10/19 01:12:59;;;;;;;;;53.00;41.00;;;;;5.73;95.80;99019.31;6282770;20;2869077;-42
2023/10/19 01:17:58;;;;;;;;;54.50;44.00;;;;;5.86;95.65;99025.72;6278053;20;2488578;-41
2023/10/19 01:25:49;;;;;;;;;56.00;44.50;;;;;5.89;95.71;99019.34;6282728;20;2859068;-42
2023/10/19 01:28:25;;;;;;;;;59.00;45.33;;;;;5.69;95.98;99015.94;6279300;20;2877454;-43
2023/10/19 01:30:56;;;;;;;;;60.33;45.33;;;;;5.80;96.29;99015.38;6313403;20;2889956;-42
2023/10/19 01:33:25;;;;;;;;;54.00;45.00;;;;;6.02;95.48;99003.59;6311556;20;2836792;-44
2023/10/19 01:36:14;;;;;;;;;57.67;44.67;;;;;5.84;95.84;99006.28;6278339;20;3620089;-42
2023/10/19 01:38:43;;;;;;;;;56.50;44.00;;;;;5.76;96.35;98992.50;6313007;20;2864924;-43
2023/10/19 01:41:18;;;;;;;;;57.00;45.00;;;;;5.42;98.39;98983.63;6282697;20;2871157;-42
2023/10/19 01:43:53;;;;;;;;;55.00;46.00;;;;;5.87;97.15;98984.81;6281388;20;2863889;-42
2023/10/19 01:46:24;;;;;;;;;57.50;47.00;;;;;5.94;95.92;98980.91;6274043;20;2853873;-43
2023/10/19 01:48:57;;;;;;;;;58.33;45.33;;;;;5.98;95.61;98980.72;6277009;20;3617980;-43
2023/10/19 01:51:32;;;;;;;;;54.50;44.00;;;;;5.93;95.99;98973.84;6307908;20;2850802;-43
2023/10/19 01:54:01;;;;;;;;;52.00;40.50;;;;;6.06;95.77;98973.19;6277079;20;2864967;-43
2023/10/19 01:56:30;;;;;;;;;53.50;42.00;;;;;6.03;95.43;98978.66;6272720;20;2847133;-42
2023/10/19 01:58:59;;;;;;;;;53.00;40.50;;;;;6.10;95.17;98980.91;6276360;20;2856565;-43
2023/10/19 02:04:03;;;;;;;;;57.33;45.33;;;;;6.09;95.14;98989.03;6280038;20;2865942;-42
2023/10/19 02:06:38;;;;;;;;;56.67;44.67;;;;;6.00;95.58;98984.16;6305729;20;3620613;-42
2023/10/19 02:12:01;;;;;;;;;49.33;40.67;;;;;6.15;95.48;98984.19;6279652;20;2864840;-44
2023/10/19 02:14:31;;;;;;;;;54.67;46.00;;;;;5.93;96.13;98968.53;6311340;20;2866071;-42
2023/10/19 02:17:03;;;;;;;;;52.00;40.50;;;;;5.99;97.52;98974.47;6308727;20;2859661;-43
2023/10/19 02:19:32;;;;;;;;;51.00;43.50;;;;;5.87;96.61;98968.84;6280545;20;2849306;-43
2023/10/19 02:22:07;;;;;;;;;50.00;41.67;;;;;5.78;98.15;98958.66;6274980;20;2864886;-45
2023/10/19 02:24:39;;;;;;;;;51.25;38.63;;;;;5.28;99.45;98949.72;6332747;20;3623178;-42
2023/10/19 02:27:09;;;;;;;;;54.50;44.00;;;;;5.63;100.00;98956.81;6275937;20;2862914;-42
2023/10/19 02:29:51;;;;;;;;;56.00;46.00;;;;;5.86;99.83;98959.09;6278098;20;2871206;-43
2023/10/19 02:32:20;;;;;;;;;52.50;42.00;;;;;6.19;97.88;98957.38;6307622;20;2850284;-43
2023/10/19 02:34:49;;;;;;;;;57.00;46.50;;;;;5.49;99.31;98941.56;6280668;20;2860040;-42
2023/10/19 02:37:19;;;;;;;;;54.33;41.00;;;;;5.45;100.00;98940.00;6274868;20;2858773;-42
2023/10/19 02:39:49;;;;;;;;;49.00;42.00;;;;;5.69;100.00;98943.19;6309271;20;2842979;-42
2023/10/19 02:42:17;;;;;;;;;51.50;41.50;;;;;5.51;100.00;98934.38;6277318;20;2495075;-43
2023/10/19 02:44:46;;;;;;;;;50.00;43.50;;;;;5.52;100.00;98929.91;6279367;20;2856529;-43
2023/10/19 02:47:15;;;;;;;;;50.50;41.50;;;;;5.34;100.00;98919.28;6270555;20;2859865;-43
2023/10/19 02:49:50;;;;;;;;;54.00;41.00;;;;;5.92;100.00;98918.84;6279882;20;2864281;-44
2023/10/19 02:52:19;;;;;;;;;53.50;42.00;;;;;5.69;100.00;98916.56;6278796;20;2859681;-44
2023/10/19 02:54:48;;;;;;;;;54.00;44.50;;;;;5.80;100.00;98911.50;6279756;20;2842985;-42
2023/10/19 02:57:17;;;;;;;;;51.00;43.50;;;;;5.82;100.00;98917.63;6277692;20;2851381;-43
2023/10/19 02:59:46;;;;;;;;;54.50;45.50;;;;;5.93;100.00;98919.69;6277904;20;2869024;-43
2023/10/19 03:02:17;;;;;;;;;56.00;45.50;;;;;5.84;100.00;98926.34;6278357;20;2861813;-42
2023/10/19 03:04:46;;;;;;;;;52.00;42.00;;;;;5.84;100.00;98918.38;6278204;20;2856532;-43
2023/10/19 03:07:15;;;;;;;;;51.50;43.50;;;;;5.76;100.00;98915.25;6276831;20;2846285;-42
2023/10/19 03:09:53;;;;;;;;;52.00;44.00;;;;;5.59;100.00;98902.88;6277470;20;2468159;-42
2023/10/19 03:12:26;;;;;;;;;54.00;41.00;;;;;5.32;100.00;98902.56;6277270;20;2737483;-42
2023/10/19 03:14:55;;;;;;;;;54.00;45.50;;;;;5.59;100.00;98904.69;6308922;20;2868025;-42
2023/10/19 03:17:25;;;;;;;;;52.00;42.00;;;;;5.71;100.00;98902.22;6275632;20;2833808;-41
2023/10/19 03:19:55;;;;;;;;;41.33;35.67;;;;;5.90;100.00;98894.06;6280013;20;2859694;-42
2023/10/19 03:22:24;;;;;;;;;47.50;42.00;;;;;5.80;100.00;98892.00;6306604;20;2840061;-43
2023/10/19 03:25:44;;;;;;;;;57.67;45.67;;;;;5.57;100.00;98890.59;6275553;20;2877454;-42
2023/10/19 03:27:49;;;;;;;;;55.50;46.00;;;;;5.42;100.00;98881.59;6308593;20;2867070;-42
2023/10/19 03:30:19;;;;;;;;;57.67;41.00;;;;;5.42;100.00;98876.28;6279465;20;2874762;-41
2023/10/19 03:32:48;;;;;;;;;54.33;43.67;;;;;5.37;100.00;98873.88;6310195;20;3629451;-43
2023/10/19 03:35:20;;;;;;;;;56.00;46.67;;;;;5.43;100.00;98862.03;6314437;20;2875736;-42
2023/10/19 03:37:51;;;;;;;;;58.50;44.00;;;;;5.52;100.00;98855.34;6314406;20;2856634;-44
2023/10/19 03:40:29;;;;;;;;;56.67;44.00;;;;;5.39;100.00;98844.50;6284452;20;3628509;-43
2023/10/19 03:42:58;;;;;;;;;54.50;45.50;;;;;5.66;100.00;98847.47;6312188;20;2861728;-42
2023/10/19 03:45:27;;;;;;;;;57.00;46.00;;;;;6.00;100.00;98841.16;6284353;20;2847153;-42
2023/10/19 03:47:56;;;;;;;;;46.00;37.00;;;;;6.11;100.00;98845.91;6283809;20;2840057;-42
2023/10/19 03:50:29;;;;;;;;;66.00;53.00;;;;;5.75;100.00;98841.63;6284048;20;2873832;-43
2023/10/19 03:52:59;;;;;;;;;65.67;51.67;;;;;5.88;100.00;98840.00;6314512;20;2873370;-43
2023/10/19 03:55:29;;;;;;;;;65.67;49.67;;;;;5.56;100.00;98833.81;6313907;20;3638811;-44
2023/10/19 03:57:58;;;;;;;;;60.00;45.00;;;;;5.88;100.00;98831.16;6313181;20;2855461;-41
2023/10/19 04:00:29;;;;;;;;;56.33;45.00;;;;;5.80;100.00;98826.25;6280305;20;2867993;-41
2023/10/19 04:02:59;;;;;;;;;64.33;46.33;;;;;5.86;100.00;98827.72;6313408;20;2871179;-41
2023/10/19 04:05:31;;;;;;;;;59.33;45.33;;;;;5.64;100.00;98818.28;6313752;20;2863844;-42
2023/10/19 04:08:05;;;;;;;;;56.33;44.33;;;;;5.67;100.00;98819.91;6313990;20;2863885;-43
2023/10/19 04:13:09;;;;;;;;;57.00;46.00;;;;;6.04;100.00;98825.84;6282583;20;2858695;-42
2023/10/19 04:15:41;;;;;;;;;54.50;45.50;;;;;6.36;100.00;98813.34;6312714;20;2863877;-44
2023/10/19 04:18:11;;;;;;;;;61.33;47.00;;;;;6.39;100.00;98813.16;6281813;20;2872248;-45
2023/10/19 04:23:21;;;;;;;;;55.00;44.33;;;;;6.17;100.00;98813.56;6314142;20;2862783;-44
2023/10/19 04:25:50;;;;;;;;;57.00;46.00;;;;;6.29;100.00;98803.97;6314165;20;2869029;-43
2023/10/19 04:28:30;;;;;;;;;55.67;43.33;;;;;5.65;100.00;98808.47;6280572;20;2870099;-44
2023/10/19 04:31:02;;;;;;;;;54.00;44.33;;;;;5.64;100.00;98806.75;6313498;20;3609617;-42
2023/10/19 04:33:36;;;;;;;;;57.33;48.33;;;;;6.08;100.00;98795.41;6312428;20;2865017;-43
2023/10/19 04:36:08;;;;;;;;;54.50;45.00;;;;;5.74;100.00;98792.00;6313389;20;2852378;-43
2023/10/19 04:38:38;;;;;;;;;63.33;47.33;;;;;5.92;100.00;98796.28;6282408;20;3628420;-42
2023/10/19 04:41:11;;;;;;;;;57.00;47.00;;;;;6.26;100.00;98801.50;6314981;20;2859748;-42
2023/10/19 04:43:43;;;;;;;;;53.00;42.67;;;;;5.97;100.00;98797.84;6282155;20;2853562;-41
2023/10/19 04:46:12;;;;;;;;;52.00;44.00;;;;;5.76;100.00;98795.41;6312228;20;2857578;-43
2023/10/19 04:48:42;;;;;;;;;58.50;45.50;;;;;5.63;100.00;98794.38;6282614;20;2862916;-42
2023/10/19 04:51:12;;;;;;;;;50.00;41.67;;;;;5.86;100.00;98787.75;6283170;20;2860794;-43
2023/10/19 04:53:42;;;;;;;;;58.50;47.50;;;;;6.12;100.00;98794.31;6314391;20;2863812;-42
2023/10/19 04:56:12;;;;;;;;;60.00;49.00;;;;;6.22;100.00;98791.97;6280200;20;2858612;-42
2023/10/19 04:58:41;;;;;;;;;56.50;45.50;;;;;5.72;100.00;98788.56;6277767;20;2851523;-43
2023/10/19 05:01:11;;;;;;;;;57.00;47.00;;;;;5.52;100.00;98780.81;6280088;20;2871295;-43
2023/10/19 05:03:43;;;;;;;;;60.67;49.33;;;;;5.65;100.00;98777.38;6314419;20;2867017;-42
2023/10/19 05:06:13;;;;;;;;;61.67;47.00;;;;;6.00;100.00;98787.00;6310654;20;3607767;-42
2023/10/19 05:08:42;;;;;;;;;57.00;47.50;;;;;5.92;100.00;98782.97;6311109;20;2850299;-42
2023/10/19 05:11:11;;;;;;;;;59.00;46.00;;;;;5.93;100.00;98787.38;6282221;20;2866991;-44
2023/10/19 05:13:40;;;;;;;;;58.00;48.00;;;;;5.68;100.00;98787.84;6277959;20;2858636;-42
2023/10/19 05:16:09;;;;;;;;;63.00;48.00;;;;;5.86;100.00;98785.94;6281107;20;2861697;-43
2023/10/19 05:18:39;;;;;;;;;55.00;44.67;;;;;5.90;100.00;98792.00;6282968;20;2862796;-43
2023/10/19 05:21:10;;;;;;;;;59.33;47.00;;;;;5.79;100.00;98789.03;6313527;20;2873372;-43
2023/10/19 05:23:39;;;;;;;;;61.00;49.67;;;;;5.75;100.00;98788.38;6309844;20;2873473;-42
2023/10/19 05:26:08;;;;;;;;;60.50;49.00;;;;;5.71;100.00;98776.16;6310247;20;2861835;-42
2023/10/19 05:28:38;;;;;;;;;60.33;47.33;;;;;5.79;100.00;98787.25;6280423;20;2875475;-42
2023/10/19 05:31:08;;;;;;;;;60.00;48.67;;;;;5.79;100.00;98778.41;6311697;20;2875462;-43
2023/10/19 05:33:37;;;;;;;;;56.00;46.67;;;;;5.97;100.00;98771.19;6312412;20;2869062;-42
2023/10/19 05:36:07;;;;;;;;;64.67;49.67;;;;;6.00;100.00;98781.66;6311716;20;3638918;-40
2023/10/19 05:38:37;;;;;;;;;62.67;48.00;;;;;6.29;100.00;98780.88;6310424;20;3628434;-41
2023/10/19 05:41:07;;;;;;;;;60.33;50.00;;;;;6.31;100.00;98784.28;6313720;20;3623217;-43
2023/10/19 05:43:39;;;;;;;;;63.33;50.33;;;;;6.17;100.00;98784.22;6312394;20;2877621;-44
2023/10/19 05:46:10;;;;;;;;;55.00;44.33;;;;;5.94;100.00;98783.75;6309976;20;2868175;-43
2023/10/19 05:48:40;;;;;;;;;64.00;48.67;;;;;6.01;100.00;98783.41;6312818;20;2870188;-41
2023/10/19 05:51:10;;;;;;;;;60.00;48.00;;;;;6.04;100.00;98796.56;6311148;20;2875355;-40
2023/10/19 05:53:39;;;;;;;;;65.00;49.33;;;;;6.36;100.00;98784.88;6312400;20;3628368;-41
2023/10/19 05:56:08;;;;;;;;;57.50;46.00;;;;;5.96;100.00;98796.13;6310454;20;2859805;-40
2023/10/19 05:58:37;;;;;;;;;57.50;45.50;;;;;5.91;100.00;98786.56;6278373;20;2856670;-40
2023/10/19 06:01:08;;;;;;;;;61.33;47.00;;;;;6.01;100.00;98783.41;6279994;20;3616957;-41
2023/10/19 06:03:38;;;;;;;;;68.00;54.33;;;;;6.43;100.00;98784.53;6311636;20;3613829;-40
2023/10/19 06:06:08;;;;;;;;;60.67;48.33;;;;;6.34;100.00;98789.41;6312351;20;3631950;-40
2023/10/19 06:08:40;;;;;;;;;62.67;50.00;;;;;6.16;100.00;98787.81;6310389;20;3622175;-40
2023/10/19 06:11:09;;;;;;;;;59.00;46.00;;;;;6.12;100.00;98788.97;6309830;20;2867964;-41
2023/10/19 06:13:38;;;;;;;;;58.00;48.00;;;;;6.34;100.00;98785.91;6278582;20;2862813;-40
2023/10/19 06:16:07;;;;;;;;;57.50;47.00;;;;;6.09;100.00;98792.66;6278116;20;2852399;-43
2023/10/19 06:18:36;;;;;;;;;58.50;46.50;;;;;6.20;100.00;98789.38;6280292;20;2864617;-40
2023/10/19 06:21:05;;;;;;;;;63.67;49.67;;;;;6.22;100.00;98787.50;6280488;20;2883691;-42
2023/10/19 06:23:36;;;;;;;;;57.00;47.33;;;;;6.42;100.00;98785.44;6311706;20;2865894;-40
2023/10/19 06:26:12;;;;;;;;;55.00;45.00;;;;;6.58;100.00;98783.59;6311052;20;2856655;-41
2023/10/19 06:28:41;;;;;;;;;57.00;46.50;;;;;6.63;100.00;98789.50;6311025;20;2856606;-40
2023/10/19 06:31:10;;;;;;;;;58.50;47.00;;;;;6.46;100.00;98787.00;6279478;20;2863973;-41
2023/10/19 06:33:41;;;;;;;;;61.33;48.00;;;;;6.45;100.00;98787.94;6280533;20;3633686;-41
2023/10/19 06:36:11;;;;;;;;;59.00;47.33;;;;;6.46;100.00;98782.53;6309535;20;2875472;-40
2023/10/19 06:38:42;;;;;;;;;60.67;49.00;;;;;6.53;100.00;98781.22;6310063;20;2877428;-40
2023/10/19 06:41:13;;;;;;;;;63.00;49.00;;;;;6.47;100.00;98792.22;6310176;20;3617025;-41
2023/10/19 06:43:42;;;;;;;;;58.00;45.00;;;;;6.70;100.00;98780.19;6309948;20;3629471;-40
2023/10/19 06:46:12;;;;;;;;;57.00;45.00;;;;;6.38;100.00;98764.31;6307705;20;2863965;-42
2023/10/19 06:48:42;;;;;;;;;62.00;51.00;;;;;6.90;100.00;98784.34;6310360;20;2872316;-45
2023/10/19 06:51:12;;;;;;;;;59.00;49.33;;;;;6.55;100.00;98779.28;6306116;20;3619000;-44
2023/10/19 06:53:41;;;;;;;;;61.00;49.00;;;;;6.35;100.00;98772.50;6310311;20;2876321;-44
2023/10/19 06:56:11;;;;;;;;;60.33;47.67;;;;;6.61;100.00;98767.44;6307497;20;2869077;-47
2023/10/19 06:58:41;;;;;;;;;65.67;52.67;;;;;6.72;100.00;98764.97;6308268;20;3614463;-43
2023/10/19 07:01:10;;;;;;;;;61.00;49.67;;;;;6.65;100.00;98762.75;6309727;20;3623174;-44
2023/10/19 07:03:40;;;;;;;;;59.33;48.00;;;;;6.86;100.00;98755.25;6311314;20;2865915;-44
2023/10/19 07:06:13;;;;;;;;;67.67;51.33;;;;;6.70;100.00;98747.31;6308170;20;3624214;-44
2023/10/19 07:08:42;;;;;;;;;57.50;47.00;;;;;6.88;100.00;98753.34;6312767;20;2866007;-43
2023/10/19 07:11:12;;;;;;;;;60.00;48.00;;;;;6.99;100.00;98751.72;6282991;20;2876421;-43
2023/10/19 07:13:42;;;;;;;;;60.00;47.67;;;;;7.12;100.00;98751.81;6314516;20;2879135;-43
2023/10/19 07:16:12;;;;;;;;;62.33;49.00;;;;;6.97;100.00;98739.44;6313704;20;3631542;-44
2023/10/19 07:18:42;;;;;;;;;59.67;49.00;;;;;7.07;100.00;98740.56;6317147;20;3629426;-43
2023/10/19 07:21:12;;;;;;;;;62.67;50.33;;;;;7.17;100.00;98754.22;6316352;20;3618993;-43
2023/10/19 07:23:44;;;;;;;;;59.33;48.33;;;;;7.06;100.00;98752.22;6313311;20;2872244;-44
2023/10/19 07:26:14;;;;;;;;;57.00;46.00;;;;;6.91;100.00;98745.16;6316120;20;2867172;-44
2023/10/19 07:28:43;;;;;;;;;62.00;51.33;;;;;7.03;100.00;98741.75;6284399;20;2862901;-45
2023/10/19 07:31:15;;;;;;;;;60.67;48.00;;;;;7.27;100.00;98750.03;6315044;20;3627460;-44
2023/10/19 07:33:49;;;;;;;;;61.50;49.00;;;;;7.32;100.00;98745.25;6315268;20;2859751;-43
2023/10/19 07:36:19;;;;;;;;;64.00;50.33;;;;;7.17;100.00;98746.22;6281241;20;3628470;-44
2023/10/19 07:38:49;;;;;;;;;60.33;48.33;;;;;7.17;100.00;98733.72;6316356;20;3627326;-43
2023/10/19 07:41:19;;;;;;;;;64.67;51.00;;;;;7.17;100.00;98731.03;6315927;20;3624241;-43
2023/10/19 07:43:48;;;;;;;;;56.33;47.00;;;;;7.14;100.00;98733.91;6316945;20;2873715;-45
2023/10/19 07:46:18;;;;;;;;;67.67;49.67;;;;;7.19;100.00;98731.81;6316097;20;3649742;-44
2023/10/19 07:48:48;;;;;;;;;65.00;49.67;;;;;7.56;100.00;98718.78;6316684;20;3626329;-45
2023/10/19 07:51:18;;;;;;;;;58.67;48.33;;;;;7.44;100.00;98712.41;6315907;20;3623227;-44
2023/10/19 07:53:48;;;;;;;;;62.67;49.33;;;;;7.63;100.00;98709.38;6318767;20;3615921;-44
2023/10/19 07:56:19;;;;;;;;;59.67;48.00;;;;;7.60;100.00;98711.41;6315079;20;3627503;-45
2023/10/19 07:58:48;;;;;;;;;63.67;52.00;;;;;7.63;100.00;98701.38;6314903;20;3612792;-47
2023/10/19 08:01:18;;;;;;;;;62.33;50.67;;;;;7.85;100.00;98705.31;6316786;20;2874682;-45
2023/10/19 08:03:47;;;;;;;;;63.00;50.00;;;;;8.11;100.00;98708.94;6317592;20;2865963;-44
2023/10/19 08:06:17;;;;;;;;;63.33;50.67;;;;;7.62;100.00;98702.34;6316597;20;2865681;-44
2023/10/19 08:08:47;;;;;;;;;62.33;50.33;;;;;7.43;100.00;98696.50;6315704;20;3633653;-47
2023/10/19 08:11:17;;;;;;;;;64.00;50.00;;;;;7.72;100.00;98699.06;6315970;20;3635668;-43
2023/10/19 08:13:47;;;;;;;;;62.67;50.00;;;;;7.79;100.00;98695.88;6315422;20;3629416;-43
2023/10/19 08:16:16;;;;;;;;;208.00;181.50;;;;;8.10;100.00;98691.16;6307135;20;1945084;-44
2023/10/19 08:18:47;;;;;;;;;104.00;91.25;;;;;8.06;100.00;98682.50;6283648;20;3704769;-45
2023/10/19 08:21:17;;;;;;;;;88.67;79.00;;;;;8.18;100.00;98678.13;6281699;20;3676554;-43
2023/10/19 08:23:47;;;;;;;;;73.67;56.67;;;;;8.28;100.00;98671.19;6269810;20;3616374;-45
2023/10/19 08:26:17;;;;;;;;;78.33;60.67;;;;;8.14;100.00;98665.94;6316274;20;3648228;-46
2023/10/19 08:28:47;;;;;;;;;75.33;58.67;;;;;8.39;100.00;98670.50;6281893;20;3639942;-43
2023/10/19 08:31:17;;;;;;;;;63.00;50.33;;;;;8.41;100.00;98668.56;6313564;20;3623277;-45
2023/10/19 08:33:47;;;;;;;;;95.00;89.33;;;;;8.39;100.00;98654.44;6316202;20;3657537;-44
2023/10/19 08:36:20;;;;;;;;;85.00;75.00;;;;;8.34;100.00;98656.53;6316090;20;3663339;-44
2023/10/19 08:38:49;;;;;;;;;68.33;53.00;;;;;8.66;100.00;98648.13;6296188;20;3626427;-45
2023/10/19 08:41:21;;;;;;;;;105.25;96.88;;;;;8.55;100.00;98640.84;6280195;20;3684654;-45
2023/10/19 08:43:50;;;;;;;;;76.33;59.33;;;;;8.51;100.00;98648.25;6314139;20;3637892;-46
2023/10/19 08:46:20;;;;;;;;;66.00;52.00;;;;;8.65;100.00;98651.78;6314382;20;3619104;-44
2023/10/19 08:48:50;;;;;;;;;64.00;50.67;;;;;8.41;100.00;98646.31;6316339;20;3627555;-45
2023/10/19 08:51:20;;;;;;;;;64.00;51.00;;;;;8.70;100.00;98645.13;6314029;20;3617081;-44
2023/10/19 08:53:53;;;;;;;;;64.33;50.67;;;;;8.75;100.00;98642.13;6318099;20;3624199;-45
2023/10/19 08:56:23;;;;;;;;;56.00;46.33;;;;;8.64;100.00;98642.91;6280850;20;2859748;-45
2023/10/19 08:58:53;;;;;;;;;65.33;51.00;;;;;8.64;100.00;98642.03;6312791;20;3635692;-44
2023/10/19 09:01:23;;;;;;;;;61.33;49.67;;;;;8.93;100.00;98638.16;6316204;20;3616935;-45
2023/10/19 09:03:53;;;;;;;;;61.33;50.00;;;;;8.96;100.00;98635.25;6315238;20;3611704;-48
2023/10/19 09:06:23;;;;;;;;;65.00;51.33;;;;;9.13;100.00;98638.53;6309982;20;3626291;-45
2023/10/19 09:08:53;;;;;;;;;59.33;47.33;;;;;8.73;100.00;98641.38;6315854;20;3617999;-45
2023/10/19 09:11:24;;;;;;;;;56.00;45.67;;;;;8.78;100.00;98640.09;6315167;20;2865000;-44
2023/10/19 09:13:55;;;;;;;;;60.33;48.33;;;;;9.13;100.00;98633.16;6314540;20;3623172;-44
2023/10/19 09:16:26;;;;;;;;;63.67;50.00;;;;;9.17;100.00;98629.31;6313351;20;3630512;-45
2023/10/19 09:18:57;;;;;;;;;66.67;50.00;;;;;9.24;100.00;98625.19;6315406;20;3642969;-45
2023/10/19 09:21:25;;;;;;;;;62.33;49.67;;;;;9.24;100.00;98633.22;6315292;20;3617341;-44
2023/10/19 09:23:58;;;;;;;;;63.00;51.33;;;;;9.25;100.00;98626.06;6284721;20;3622138;-44
2023/10/19 09:26:28;;;;;;;;;59.67;49.67;;;;;9.40;100.00;98625.81;6311382;20;2855522;-44
2023/10/19 09:28:59;;;;;;;;;65.67;53.33;;;;;9.28;100.00;98620.50;6313030;20;3609692;-44
2023/10/19 09:31:30;;;;;;;;;67.33;53.67;;;;;9.50;100.00;98633.13;6313346;20;3627324;-44
2023/10/19 09:34:03;;;;;;;;;75.67;65.67;;;;;9.08;100.00;98627.28;6311138;20;3662773;-46
2023/10/19 09:36:34;;;;;;;;;72.33;59.33;;;;;9.16;100.00;98627.56;6280393;20;3627338;-44
2023/10/19 09:39:03;;;;;;;;;60.00;48.00;;;;;9.32;100.00;98625.50;6315107;20;3613809;-44
2023/10/19 09:41:34;;;;;;;;;62.00;50.00;;;;;9.40;100.00;98623.13;6285423;20;3622147;-44
2023/10/19 09:44:10;;;;;;;;;63.50;52.00;;;;;9.61;100.00;98611.75;6313262;20;2856717;-44
2023/10/19 09:46:41;;;;;;;;;57.00;46.00;;;;;9.55;100.00;98597.00;6280586;20;2863948;-45
2023/10/19 09:49:13;;;;;;;;;60.67;48.67;;;;;9.70;100.00;98597.69;6314131;20;3619012;-46
2023/10/19 09:51:44;;;;;;;;;61.33;49.00;;;;;9.86;100.00;98590.16;6316621;20;2869122;-45
2023/10/19 09:55:28;;;;;;;;;60.00;49.00;;;;;9.93;100.00;98584.38;6314821;20;3623169;-44
2023/10/19 09:58:25;;;;;;;;;73.00;58.67;;;;;10.56;100.00;98580.34;6311761;20;2875362;-44
2023/10/19 10:00:57;;;;;;;;;61.00;49.33;;;;;10.80;100.00;98565.94;6313115;20;2864021;-45
2023/10/19 10:03:51;;;;;;;;;68.67;55.33;;;;;11.37;100.00;98562.13;6312370;20;3617983;-44
2023/10/19 10:06:51;;;;;;;;;63.00;50.00;;;;;11.41;100.00;98555.53;6316707;20;3623235;-44
2023/10/19 10:09:26;;;;;;;;;78.63;61.63;;;;;11.07;100.00;98544.88;6303774;20;3657594;-46
2023/10/19 10:11:56;;;;;;;;;71.33;56.00;;;;;11.14;100.00;98540.72;6315166;20;3623188;-45
2023/10/19 10:14:31;;;;;;;;;63.33;51.33;;;;;11.49;100.00;98528.88;6283647;20;3616915;-44
2023/10/19 10:17:05;;;;;;;;;66.33;52.00;;;;;11.29;100.00;98521.63;6313874;20;3615940;-44
2023/10/19 10:19:35;;;;;;;;;56.33;47.00;;;;;11.14;100.00;98519.22;6283930;20;3613161;-47
2023/10/19 10:22:12;;;;;;;;;67.00;52.67;;;;;11.37;100.00;98522.69;6314063;20;3614856;-46
2023/10/19 10:24:46;;;;;;;;;67.33;51.00;;;;;11.46;100.00;98518.38;6316109;20;3618013;-44
2023/10/19 10:27:19;;;;;;;;;66.67;51.00;;;;;11.71;100.00;98524.38;6281947;20;3627339;-45
2023/10/19 10:30:05;;;;;;;;;61.33;48.67;;;;;11.90;100.00;98513.78;6314844;20;3623380;-44
2023/10/19 10:32:50;;;;;;;;;59.67;49.00;;;;;11.89;100.00;98503.16;6281988;20;3618025;-47
2023/10/19 10:35:55;;;;;;;;;59.33;47.33;;;;;12.17;100.00;98504.31;6312895;20;3617954;-47
2023/10/19 10:38:27;;;;;;;;;77.75;67.50;;;;;11.99;100.00;98499.53;6312077;20;4408555;-47
2023/10/19 10:40:56;;;;;;;;;59.67;49.00;;;;;11.95;100.00;98492.69;6313245;20;3624214;-44
2023/10/19 10:43:25;;;;;;;;;69.33;54.33;;;;;12.22;100.00;98496.69;6284188;20;3618027;-51
2023/10/19 10:46:07;;;;;;;;;64.67;51.33;;;;;12.06;100.00;98491.78;6282167;20;3626253;-46
2023/10/19 10:48:42;;;;;;;;;59.67;48.00;;;;;12.14;100.00;98486.59;6313922;20;3602440;-45
2023/10/19 10:51:28;;;;;;;;;81.00;71.00;;;;;12.28;100.00;98482.69;6281041;20;3659675;-47
2023/10/19 10:53:59;;;;;;;;;57.67;45.00;;;;;12.04;100.00;98483.84;6277796;20;3626284;-44
2023/10/19 10:56:28;;;;;;;;;52.00;44.00;;;;;12.15;100.00;98472.16;6313630;20;3585679;-46
2023/10/19 10:58:59;;;;;;;;;54.33;43.33;;;;;12.48;100.00;98479.09;6312106;20;3612862;-44
2023/10/19 11:01:32;;;;;;;;;60.00;48.00;;;;;12.72;100.00;98467.13;6313346;20;3616929;-45
2023/10/19 11:04:13;;;;;;;;;51.50;43.50;;;;;12.66;100.00;98459.56;6280106;20;2847280;-48
2023/10/19 11:06:56;;;;;;;;;54.00;44.00;;;;;12.64;100.00;98459.72;6281031;20;2748283;-45
2023/10/19 11:09:27;;;;;;;;;51.67;42.33;;;;;12.76;100.00;98456.91;6312905;20;3605484;-44
2023/10/19 11:12:00;;;;;;;;;92.25;77.13;;;;;13.11;100.00;98448.28;6306757;20;3689791;-48
2023/10/19 11:14:29;;;;;;;;;60.33;47.67;;;;;13.17;100.00;98448.59;6281119;20;3617939;-48
2023/10/19 11:17:15;;;;;;;;;117.67;106.00;;;;;13.60;100.00;98444.63;6309897;20;3706726;-48
2023/10/19 11:19:44;;;;;;;;;52.67;44.00;;;;;13.34;100.00;98430.88;6311597;20;3611683;-46
2023/10/19 11:22:13;;;;;;;;;49.67;42.00;;;;;13.30;100.00;98431.34;6281708;20;2856614;-45
2023/10/19 11:24:43;;;;;;;;;47.67;40.00;;;;;12.78;100.00;98436.09;6315403;20;3577388;-49
2023/10/19 11:27:12;;;;;;;;;51.50;43.00;;;;;12.76;100.00;98433.53;6276191;20;2858678;-45
2023/10/19 11:29:58;;;;;;;;;48.00;41.00;;;;;12.89;100.00;98425.19;6279052;20;2846168;-45
2023/10/19 11:32:38;;;;;;;;;50.67;42.00;;;;;13.38;100.00;98429.63;6280195;20;2856521;-45
2023/10/19 11:35:07;;;;;;;;;47.67;38.67;;;;;12.67;100.00;98423.59;6315980;20;3576309;-45
2023/10/19 11:38:03;;;;;;;;;50.00;41.67;;;;;12.63;100.00;98414.06;6277247;20;2851341;-46
2023/10/19 11:40:32;;;;;;;;;58.00;45.33;;;;;13.07;100.00;98415.41;6314602;20;3619035;-46
2023/10/19 11:43:03;;;;;;;;;62.00;50.00;;;;;13.27;100.00;98421.69;6280164;20;3619038;-47